sensor_id;sensor_type;location;lat;lon;timestamp;P1;durP1;ratioP1;P2;durP2;ratioP2
68473;SDS011;55461;52.066;5.194;2022-07-22T00:03:21;8.4;;;3.3;;
68473;SDS011;55461;52.066;5.194;2022-07-22T00:05:07;6.8;;;2.7;;
68473;SDS011;55461;52.066;5.194;2022-07-22T00:06:56;8.31;;;3.0;;
68473;SDS011;55461;52.066;5.194;2022-07-22T00:08:41;6.9;;;2.8;;
68473;SDS011;55461;52.066;5.194;2022-07-22T00:10:28;10.7;;;3.2;;
68473;SDS011;55461;52.066;5.194;2022-07-22T00:12:15;7.1;;;2.8;;
68473;SDS011;55461;52.066;5.194;2022-07-22T00:15:48;7.0;;;3.0;;
68473;SDS011;55461;52.066;5.194;2022-07-22T00:17:36;8.31;;;2.9;;
68473;SDS011;55461;52.066;5.194;2022-07-22T00:19:24;8.81;;;2.8;;
68473;SDS011;55461;52.066;5.194;2022-07-22T00:21:13;7.3;;;3.0;;
68473;SDS011;55461;52.066;5.194;2022-07-22T00:22:59;6.8;;;2.6;;
68473;SDS011;55461;52.066;5.194;2022-07-22T00:24:46;6.3;;;2.6;;
68473;SDS011;55461;52.066;5.194;2022-07-22T00:28:19;8.0;;;2.7;;
68473;SDS011;55461;52.066;5.194;2022-07-22T00:30:06;5.7;;;2.5;;
68473;SDS011;55461;52.066;5.194;2022-07-22T00:31:54;7.7;;;2.7;;
68473;SDS011;55461;52.066;5.194;2022-07-22T00:33:41;7.2;;;2.5;;
68473;SDS011;55461;52.066;5.194;2022-07-22T00:35:28;7.4;;;2.4;;
68473;SDS011;55461;52.066;5.194;2022-07-22T00:39:01;7.4;;;2.4;;
68473;SDS011;55461;52.066;5.194;2022-07-22T00:40:49;6.9;;;2.5;;
68473;SDS011;55461;52.066;5.194;2022-07-22T00:42:36;8.1;;;2.6;;
68473;SDS011;55461;52.066;5.194;2022-07-22T00:44:23;6.3;;;2.6;;
68473;SDS011;55461;52.066;5.194;2022-07-22T00:46:09;6.5;;;2.5;;
68473;SDS011;55461;52.066;5.194;2022-07-22T00:47:55;6.1;;;2.4;;
68473;SDS011;55461;52.066;5.194;2022-07-22T00:51:28;7.5;;;2.5;;
68473;SDS011;55461;52.066;5.194;2022-07-22T00:53:16;7.5;;;2.5;;
68473;SDS011;55461;52.066;5.194;2022-07-22T00:55:03;5.4;;;2.4;;
68473;SDS011;55461;52.066;5.194;2022-07-22T00:56:52;4.7;;;2.0;;
68473;SDS011;55461;52.066;5.194;2022-07-22T00:58:38;8.0;;;2.5;;
68473;SDS011;55461;52.066;5.194;2022-07-22T01:00:26;7.8;;;3.0;;
68473;SDS011;55461;52.066;5.194;2022-07-22T01:04:00;7.5;;;2.6;;
68473;SDS011;55461;52.066;5.194;2022-07-22T01:05:47;7.2;;;2.6;;
68473;SDS011;55461;52.066;5.194;2022-07-22T01:07:33;6.1;;;2.31;;
68473;SDS011;55461;52.066;5.194;2022-07-22T01:09:20;6.4;;;2.31;;
68473;SDS011;55461;52.066;5.194;2022-07-22T01:11:07;8.9;;;2.8;;
68473;SDS011;55461;52.066;5.194;2022-07-22T01:12:54;7.6;;;2.6;;
68473;SDS011;55461;52.066;5.194;2022-07-22T01:16:29;5.5;;;2.31;;
68473;SDS011;55461;52.066;5.194;2022-07-22T01:18:15;8.2;;;2.7;;
68473;SDS011;55461;52.066;5.194;2022-07-22T01:20:03;6.5;;;2.4;;
68473;SDS011;55461;52.066;5.194;2022-07-22T01:21:50;5.4;;;2.5;;
68473;SDS011;55461;52.066;5.194;2022-07-22T01:23:37;7.6;;;2.31;;
68473;SDS011;55461;52.066;5.194;2022-07-22T01:25:24;7.5;;;2.6;;
68473;SDS011;55461;52.066;5.194;2022-07-22T01:28:58;7.4;;;2.6;;
68473;SDS011;55461;52.066;5.194;2022-07-22T01:30:44;5.7;;;2.31;;
68473;SDS011;55461;52.066;5.194;2022-07-22T01:32:30;6.0;;;2.4;;
68473;SDS011;55461;52.066;5.194;2022-07-22T01:34:16;6.5;;;2.4;;
68473;SDS011;55461;52.066;5.194;2022-07-22T01:36:03;6.2;;;2.31;;
68473;SDS011;55461;52.066;5.194;2022-07-22T01:39:37;5.5;;;2.21;;
68473;SDS011;55461;52.066;5.194;2022-07-22T01:41:23;7.8;;;2.4;;
68473;SDS011;55461;52.066;5.194;2022-07-22T01:43:10;5.8;;;2.31;;
68473;SDS011;55461;52.066;5.194;2022-07-22T01:44:56;5.2;;;2.1;;
68473;SDS011;55461;52.066;5.194;2022-07-22T01:46:42;10.9;;;2.7;;
68473;SDS011;55461;52.066;5.194;2022-07-22T01:48:28;4.8;;;2.21;;
68473;SDS011;55461;52.066;5.194;2022-07-22T01:52:02;6.8;;;2.31;;
68473;SDS011;55461;52.066;5.194;2022-07-22T01:53:51;5.6;;;2.31;;
68473;SDS011;55461;52.066;5.194;2022-07-22T01:55:37;6.8;;;2.31;;
68473;SDS011;55461;52.066;5.194;2022-07-22T01:57:24;6.6;;;2.0;;
68473;SDS011;55461;52.066;5.194;2022-07-22T01:59:11;5.9;;;2.21;;
68473;SDS011;55461;52.066;5.194;2022-07-22T02:00:57;3.7;;;2.0;;
68473;SDS011;55461;52.066;5.194;2022-07-22T02:04:32;7.4;;;2.1;;
68473;SDS011;55461;52.066;5.194;2022-07-22T02:06:18;8.2;;;2.5;;
68473;SDS011;55461;52.066;5.194;2022-07-22T02:08:06;5.7;;;2.21;;
68473;SDS011;55461;52.066;5.194;2022-07-22T02:09:55;6.0;;;2.0;;
68473;SDS011;55461;52.066;5.194;2022-07-22T02:11:42;7.4;;;2.6;;
68473;SDS011;55461;52.066;5.194;2022-07-22T02:15:15;4.5;;;2.1;;
68473;SDS011;55461;52.066;5.194;2022-07-22T02:17:01;5.9;;;2.31;;
68473;SDS011;55461;52.066;5.194;2022-07-22T02:18:48;6.2;;;2.1;;
68473;SDS011;55461;52.066;5.194;2022-07-22T02:20:35;4.61;;;2.0;;
68473;SDS011;55461;52.066;5.194;2022-07-22T02:22:22;5.6;;;2.31;;
68473;SDS011;55461;52.066;5.194;2022-07-22T02:24:09;6.0;;;2.0;;
68473;SDS011;55461;52.066;5.194;2022-07-22T02:27:41;5.0;;;2.1;;
68473;SDS011;55461;52.066;5.194;2022-07-22T02:29:28;5.7;;;1.8;;
68473;SDS011;55461;52.066;5.194;2022-07-22T02:31:14;5.5;;;2.0;;
68473;SDS011;55461;52.066;5.194;2022-07-22T02:33:00;3.7;;;1.8;;
68473;SDS011;55461;52.066;5.194;2022-07-22T02:34:48;5.4;;;2.31;;
68473;SDS011;55461;52.066;5.194;2022-07-22T02:36:34;5.6;;;2.1;;
68473;SDS011;55461;52.066;5.194;2022-07-22T02:40:08;6.3;;;2.1;;
68473;SDS011;55461;52.066;5.194;2022-07-22T02:41:55;4.7;;;1.9;;
68473;SDS011;55461;52.066;5.194;2022-07-22T02:43:41;4.7;;;1.8;;
68473;SDS011;55461;52.066;5.194;2022-07-22T02:45:28;4.2;;;2.1;;
68473;SDS011;55461;52.066;5.194;2022-07-22T02:47:15;5.3;;;1.9;;
68473;SDS011;55461;52.066;5.194;2022-07-22T02:50:49;7.5;;;2.31;;
68473;SDS011;55461;52.066;5.194;2022-07-22T02:52:36;7.5;;;2.31;;
68473;SDS011;55461;52.066;5.194;2022-07-22T02:54:22;7.2;;;2.1;;
68473;SDS011;55461;52.066;5.194;2022-07-22T02:56:09;6.0;;;1.8;;
68473;SDS011;55461;52.066;5.194;2022-07-22T02:57:56;5.9;;;2.21;;
68473;SDS011;55461;52.066;5.194;2022-07-22T02:59:42;5.4;;;2.0;;
68473;SDS011;55461;52.066;5.194;2022-07-22T03:03:15;4.7;;;2.1;;
68473;SDS011;55461;52.066;5.194;2022-07-22T03:05:02;6.3;;;1.9;;
68473;SDS011;55461;52.066;5.194;2022-07-22T03:06:49;4.8;;;1.9;;
68473;SDS011;55461;52.066;5.194;2022-07-22T03:08:36;3.4;;;1.7;;
68473;SDS011;55461;52.066;5.194;2022-07-22T03:10:23;5.2;;;1.8;;
68473;SDS011;55461;52.066;5.194;2022-07-22T03:12:09;5.3;;;2.1;;
68473;SDS011;55461;52.066;5.194;2022-07-22T03:15:42;5.6;;;1.9;;
68473;SDS011;55461;52.066;5.194;2022-07-22T03:17:29;4.8;;;1.9;;
68473;SDS011;55461;52.066;5.194;2022-07-22T03:19:20;6.6;;;1.9;;
68473;SDS011;55461;52.066;5.194;2022-07-22T03:21:06;5.8;;;1.7;;
68473;SDS011;55461;52.066;5.194;2022-07-22T03:22:52;5.2;;;1.9;;
68473;SDS011;55461;52.066;5.194;2022-07-22T03:24:39;7.5;;;1.8;;
68473;SDS011;55461;52.066;5.194;2022-07-22T03:28:12;5.5;;;1.9;;
68473;SDS011;55461;52.066;5.194;2022-07-22T03:29:58;5.2;;;1.7;;
68473;SDS011;55461;52.066;5.194;2022-07-22T03:31:44;4.91;;;1.6;;
68473;SDS011;55461;52.066;5.194;2022-07-22T03:33:30;5.2;;;1.7;;
68473;SDS011;55461;52.066;5.194;2022-07-22T03:35:16;5.8;;;1.9;;
68473;SDS011;55461;52.066;5.194;2022-07-22T03:38:49;5.5;;;1.9;;
68473;SDS011;55461;52.066;5.194;2022-07-22T03:40:35;6.5;;;1.9;;
68473;SDS011;55461;52.066;5.194;2022-07-22T03:42:21;6.5;;;1.8;;
68473;SDS011;55461;52.066;5.194;2022-07-22T03:44:07;4.0;;;1.9;;
68473;SDS011;55461;52.066;5.194;2022-07-22T03:45:53;6.8;;;2.0;;
68473;SDS011;55461;52.066;5.194;2022-07-22T03:47:40;5.5;;;2.0;;
68473;SDS011;55461;52.066;5.194;2022-07-22T03:51:17;6.4;;;1.9;;
68473;SDS011;55461;52.066;5.194;2022-07-22T03:53:03;5.0;;;1.9;;
68473;SDS011;55461;52.066;5.194;2022-07-22T03:54:49;4.91;;;1.8;;
68473;SDS011;55461;52.066;5.194;2022-07-22T03:56:36;6.4;;;1.7;;
68473;SDS011;55461;52.066;5.194;2022-07-22T03:58:22;6.4;;;2.0;;
68473;SDS011;55461;52.066;5.194;2022-07-22T04:01:56;3.7;;;1.7;;
68473;SDS011;55461;52.066;5.194;2022-07-22T04:03:42;3.4;;;1.7;;
68473;SDS011;55461;52.066;5.194;2022-07-22T04:05:28;5.6;;;1.9;;
68473;SDS011;55461;52.066;5.194;2022-07-22T04:07:14;5.2;;;1.6;;
68473;SDS011;55461;52.066;5.194;2022-07-22T04:09:01;4.0;;;1.9;;
68473;SDS011;55461;52.066;5.194;2022-07-22T04:10:48;4.91;;;1.9;;
68473;SDS011;55461;52.066;5.194;2022-07-22T04:14:24;5.3;;;1.9;;
68473;SDS011;55461;52.066;5.194;2022-07-22T04:16:10;4.7;;;1.8;;
68473;SDS011;55461;52.066;5.194;2022-07-22T04:17:56;4.41;;;1.8;;
68473;SDS011;55461;52.066;5.194;2022-07-22T04:19:43;4.7;;;1.9;;
68473;SDS011;55461;52.066;5.194;2022-07-22T04:21:29;5.5;;;2.1;;
68473;SDS011;55461;52.066;5.194;2022-07-22T04:23:17;4.41;;;1.6;;
68473;SDS011;55461;52.066;5.194;2022-07-22T04:26:51;5.3;;;2.0;;
68473;SDS011;55461;52.066;5.194;2022-07-22T04:28:37;5.6;;;1.8;;
68473;SDS011;55461;52.066;5.194;2022-07-22T04:30:23;6.9;;;2.1;;
68473;SDS011;55461;52.066;5.194;2022-07-22T04:32:09;5.8;;;1.6;;
68473;SDS011;55461;52.066;5.194;2022-07-22T04:33:56;4.8;;;1.7;;
68473;SDS011;55461;52.066;5.194;2022-07-22T04:37:30;6.6;;;1.9;;
68473;SDS011;55461;52.066;5.194;2022-07-22T04:39:18;5.8;;;1.7;;
68473;SDS011;55461;52.066;5.194;2022-07-22T04:41:04;4.91;;;1.5;;
68473;SDS011;55461;52.066;5.194;2022-07-22T04:42:51;4.7;;;1.6;;
68473;SDS011;55461;52.066;5.194;2022-07-22T04:44:37;5.11;;;1.6;;
68473;SDS011;55461;52.066;5.194;2022-07-22T04:46:24;4.5;;;1.8;;
68473;SDS011;55461;52.066;5.194;2022-07-22T04:49:57;4.41;;;1.8;;
68473;SDS011;55461;52.066;5.194;2022-07-22T04:51:43;4.61;;;1.5;;
68473;SDS011;55461;52.066;5.194;2022-07-22T04:53:30;2.8;;;1.5;;
68473;SDS011;55461;52.066;5.194;2022-07-22T04:55:16;3.7;;;1.6;;
68473;SDS011;55461;52.066;5.194;2022-07-22T04:57:03;3.7;;;1.4;;
68473;SDS011;55461;52.066;5.194;2022-07-22T04:58:51;5.2;;;1.7;;
68473;SDS011;55461;52.066;5.194;2022-07-22T05:02:24;6.2;;;1.8;;
68473;SDS011;55461;52.066;5.194;2022-07-22T05:04:10;5.11;;;1.7;;
68473;SDS011;55461;52.066;5.194;2022-07-22T05:05:59;4.41;;;1.6;;
68473;SDS011;55461;52.066;5.194;2022-07-22T05:07:45;4.61;;;1.9;;
68473;SDS011;55461;52.066;5.194;2022-07-22T05:09:31;4.8;;;1.7;;
68473;SDS011;55461;52.066;5.194;2022-07-22T05:13:04;3.4;;;1.3;;
68473;SDS011;55461;52.066;5.194;2022-07-22T05:14:51;4.61;;;1.6;;
68473;SDS011;55461;52.066;5.194;2022-07-22T05:16:38;4.61;;;1.4;;
68473;SDS011;55461;52.066;5.194;2022-07-22T05:18:25;4.5;;;1.7;;
68473;SDS011;55461;52.066;5.194;2022-07-22T05:20:11;2.7;;;1.2;;
68473;SDS011;55461;52.066;5.194;2022-07-22T05:21:58;4.5;;;1.3;;
68473;SDS011;55461;52.066;5.194;2022-07-22T05:25:30;4.61;;;1.4;;
68473;SDS011;55461;52.066;5.194;2022-07-22T05:27:18;3.8;;;1.2;;
68473;SDS011;55461;52.066;5.194;2022-07-22T05:29:05;3.5;;;1.3;;
68473;SDS011;55461;52.066;5.194;2022-07-22T05:30:52;3.8;;;1.4;;
68473;SDS011;55461;52.066;5.194;2022-07-22T05:32:38;3.7;;;1.3;;
68473;SDS011;55461;52.066;5.194;2022-07-22T05:34:24;3.5;;;1.11;;
68473;SDS011;55461;52.066;5.194;2022-07-22T05:37:58;3.0;;;1.4;;
68473;SDS011;55461;52.066;5.194;2022-07-22T05:39:45;3.9;;;1.4;;
68473;SDS011;55461;52.066;5.194;2022-07-22T05:41:32;3.7;;;1.2;;
68473;SDS011;55461;52.066;5.194;2022-07-22T05:43:18;4.8;;;1.5;;
68473;SDS011;55461;52.066;5.194;2022-07-22T05:45:05;2.31;;;1.11;;
68473;SDS011;55461;52.066;5.194;2022-07-22T05:46:53;4.5;;;1.2;;
68473;SDS011;55461;52.066;5.194;2022-07-22T05:50:27;3.4;;;1.2;;
68473;SDS011;55461;52.066;5.194;2022-07-22T05:52:14;3.4;;;1.2;;
68473;SDS011;55461;52.066;5.194;2022-07-22T05:54:02;5.7;;;1.2;;
68473;SDS011;55461;52.066;5.194;2022-07-22T05:55:49;5.11;;;1.2;;
68473;SDS011;55461;52.066;5.194;2022-07-22T05:57:35;3.5;;;1.2;;
68473;SDS011;55461;52.066;5.194;2022-07-22T06:01:08;4.8;;;1.2;;
68473;SDS011;55461;52.066;5.194;2022-07-22T06:02:56;3.2;;;1.3;;
68473;SDS011;55461;52.066;5.194;2022-07-22T06:04:42;3.9;;;1.2;;
68473;SDS011;55461;52.066;5.194;2022-07-22T06:06:28;2.21;;;1.11;;
68473;SDS011;55461;52.066;5.194;2022-07-22T06:08:14;3.3;;;1.3;;
68473;SDS011;55461;52.066;5.194;2022-07-22T06:10:01;3.8;;;1.2;;
68473;SDS011;55461;52.066;5.194;2022-07-22T06:13:33;2.31;;;1.2;;
68473;SDS011;55461;52.066;5.194;2022-07-22T06:15:20;2.8;;;1.11;;
68473;SDS011;55461;52.066;5.194;2022-07-22T06:17:06;3.0;;;1.11;;
68473;SDS011;55461;52.066;5.194;2022-07-22T06:18:52;2.4;;;1.11;;
68473;SDS011;55461;52.066;5.194;2022-07-22T06:20:39;3.5;;;1.2;;
68473;SDS011;55461;52.066;5.194;2022-07-22T06:24:12;3.2;;;1.7;;
68473;SDS011;55461;52.066;5.194;2022-07-22T06:25:58;3.6;;;1.7;;
68473;SDS011;55461;52.066;5.194;2022-07-22T06:27:44;3.0;;;1.5;;
68473;SDS011;55461;52.066;5.194;2022-07-22T06:29:31;3.5;;;1.7;;
68473;SDS011;55461;52.066;5.194;2022-07-22T06:31:18;2.8;;;2.1;;
68473;SDS011;55461;52.066;5.194;2022-07-22T06:33:04;2.8;;;2.0;;
68473;SDS011;55461;52.066;5.194;2022-07-22T06:36:36;3.4;;;1.7;;
68473;SDS011;55461;52.066;5.194;2022-07-22T06:38:23;2.8;;;1.7;;
68473;SDS011;55461;52.066;5.194;2022-07-22T06:40:10;3.4;;;1.7;;
68473;SDS011;55461;52.066;5.194;2022-07-22T06:41:57;3.1;;;1.4;;
68473;SDS011;55461;52.066;5.194;2022-07-22T06:43:44;2.8;;;1.6;;
68473;SDS011;55461;52.066;5.194;2022-07-22T06:45:30;2.5;;;1.5;;
68473;SDS011;55461;52.066;5.194;2022-07-22T06:49:03;3.1;;;1.6;;
68473;SDS011;55461;52.066;5.194;2022-07-22T06:50:50;3.7;;;1.4;;
68473;SDS011;55461;52.066;5.194;2022-07-22T06:52:38;2.6;;;1.3;;
68473;SDS011;55461;52.066;5.194;2022-07-22T06:54:26;2.21;;;0.9;;
68473;SDS011;55461;52.066;5.194;2022-07-22T06:56:12;3.0;;;1.0;;
68473;SDS011;55461;52.066;5.194;2022-07-22T06:59:44;2.8;;;0.9;;
68473;SDS011;55461;52.066;5.194;2022-07-22T07:01:30;2.0;;;0.9;;
68473;SDS011;55461;52.066;5.194;2022-07-22T07:03:17;3.2;;;1.0;;
68473;SDS011;55461;52.066;5.194;2022-07-22T07:05:04;2.4;;;0.9;;
68473;SDS011;55461;52.066;5.194;2022-07-22T07:06:51;2.5;;;1.0;;
68473;SDS011;55461;52.066;5.194;2022-07-22T07:08:38;3.0;;;1.0;;
68473;SDS011;55461;52.066;5.194;2022-07-22T07:12:12;2.31;;;0.9;;
68473;SDS011;55461;52.066;5.194;2022-07-22T07:13:58;2.9;;;1.0;;
68473;SDS011;55461;52.066;5.194;2022-07-22T07:15:45;2.31;;;1.11;;
68473;SDS011;55461;52.066;5.194;2022-07-22T07:17:32;3.5;;;1.2;;
68473;SDS011;55461;52.066;5.194;2022-07-22T07:19:19;3.5;;;1.2;;
68473;SDS011;55461;52.066;5.194;2022-07-22T07:21:06;3.2;;;1.11;;
68473;SDS011;55461;52.066;5.194;2022-07-22T07:24:39;2.5;;;1.2;;
68473;SDS011;55461;52.066;5.194;2022-07-22T07:26:26;2.9;;;1.11;;
68473;SDS011;55461;52.066;5.194;2022-07-22T07:28:12;1.7;;;0.9;;
68473;SDS011;55461;52.066;5.194;2022-07-22T07:29:59;2.9;;;1.11;;
68473;SDS011;55461;52.066;5.194;2022-07-22T07:31:46;1.8;;;0.9;;
68473;SDS011;55461;52.066;5.194;2022-07-22T07:35:19;2.9;;;1.2;;
68473;SDS011;55461;52.066;5.194;2022-07-22T07:37:07;4.0;;;1.11;;
68473;SDS011;55461;52.066;5.194;2022-07-22T07:38:53;2.5;;;0.9;;
68473;SDS011;55461;52.066;5.194;2022-07-22T07:40:39;4.1;;;1.2;;
68473;SDS011;55461;52.066;5.194;2022-07-22T07:42:26;1.5;;;0.9;;
68473;SDS011;55461;52.066;5.194;2022-07-22T07:44:13;3.1;;;1.2;;
68473;SDS011;55461;52.066;5.194;2022-07-22T07:47:47;3.1;;;1.2;;
68473;SDS011;55461;52.066;5.194;2022-07-22T07:49:35;3.2;;;1.3;;
68473;SDS011;55461;52.066;5.194;2022-07-22T07:51:22;2.7;;;1.0;;
68473;SDS011;55461;52.066;5.194;2022-07-22T07:53:08;2.4;;;1.11;;
68473;SDS011;55461;52.066;5.194;2022-07-22T07:54:55;3.1;;;1.2;;
68473;SDS011;55461;52.066;5.194;2022-07-22T07:56:42;4.41;;;1.0;;
68473;SDS011;55461;52.066;5.194;2022-07-22T08:00:16;3.3;;;1.3;;
68473;SDS011;55461;52.066;5.194;2022-07-22T08:02:05;2.5;;;1.0;;
68473;SDS011;55461;52.066;5.194;2022-07-22T08:03:53;2.8;;;1.0;;
68473;SDS011;55461;52.066;5.194;2022-07-22T08:05:39;2.4;;;1.11;;
68473;SDS011;55461;52.066;5.194;2022-07-22T08:07:27;2.0;;;1.0;;
68473;SDS011;55461;52.066;5.194;2022-07-22T08:09:14;2.9;;;1.11;;
68473;SDS011;55461;52.066;5.194;2022-07-22T08:12:46;2.8;;;1.11;;
68473;SDS011;55461;52.066;5.194;2022-07-22T08:14:33;3.4;;;1.0;;
68473;SDS011;55461;52.066;5.194;2022-07-22T08:16:20;2.7;;;1.0;;
68473;SDS011;55461;52.066;5.194;2022-07-22T08:18:07;2.9;;;1.0;;
68473;SDS011;55461;52.066;5.194;2022-07-22T08:19:54;3.9;;;1.2;;
68473;SDS011;55461;52.066;5.194;2022-07-22T08:23:28;3.9;;;1.11;;
68473;SDS011;55461;52.066;5.194;2022-07-22T08:25:15;3.1;;;1.11;;
68473;SDS011;55461;52.066;5.194;2022-07-22T08:27:03;2.7;;;1.0;;
68473;SDS011;55461;52.066;5.194;2022-07-22T08:28:50;3.7;;;1.11;;
68473;SDS011;55461;52.066;5.194;2022-07-22T08:30:36;3.3;;;1.2;;
68473;SDS011;55461;52.066;5.194;2022-07-22T08:32:23;2.21;;;1.2;;
68473;SDS011;55461;52.066;5.194;2022-07-22T08:35:56;2.0;;;1.0;;
68473;SDS011;55461;52.066;5.194;2022-07-22T08:37:45;2.7;;;1.0;;
68473;SDS011;55461;52.066;5.194;2022-07-22T08:39:34;2.7;;;1.11;;
68473;SDS011;55461;52.066;5.194;2022-07-22T08:41:21;3.4;;;1.2;;
68473;SDS011;55461;52.066;5.194;2022-07-22T08:43:10;3.8;;;1.3;;
68473;SDS011;55461;52.066;5.194;2022-07-22T08:44:56;4.2;;;1.4;;
68473;SDS011;55461;52.066;5.194;2022-07-22T08:48:31;3.1;;;1.3;;
68473;SDS011;55461;52.066;5.194;2022-07-22T08:50:17;3.9;;;1.2;;
68473;SDS011;55461;52.066;5.194;2022-07-22T08:52:05;2.5;;;1.11;;
68473;SDS011;55461;52.066;5.194;2022-07-22T08:53:52;3.4;;;1.2;;
68473;SDS011;55461;52.066;5.194;2022-07-22T08:55:40;2.9;;;1.2;;
68473;SDS011;55461;52.066;5.194;2022-07-22T08:57:28;2.6;;;1.11;;
68473;SDS011;55461;52.066;5.194;2022-07-22T09:01:05;2.9;;;1.2;;
68473;SDS011;55461;52.066;5.194;2022-07-22T09:02:53;3.9;;;1.3;;
68473;SDS011;55461;52.066;5.194;2022-07-22T09:04:56;3.4;;;1.4;;
68473;SDS011;55461;52.066;5.194;2022-07-22T09:06:47;3.9;;;1.5;;
68473;SDS011;55461;52.066;5.194;2022-07-22T09:08:43;4.1;;;1.3;;
68473;SDS011;55461;52.066;5.194;2022-07-22T09:10:36;3.0;;;1.4;;
68473;SDS011;55461;52.066;5.194;2022-07-22T09:12:23;3.1;;;1.4;;
68473;SDS011;55461;52.066;5.194;2022-07-22T09:14:11;3.1;;;1.6;;
68473;SDS011;55461;52.066;5.194;2022-07-22T09:17:45;3.7;;;1.6;;
68473;SDS011;55461;52.066;5.194;2022-07-22T09:19:32;3.7;;;1.6;;
68473;SDS011;55461;52.066;5.194;2022-07-22T09:21:20;3.7;;;1.8;;
68473;SDS011;55461;52.066;5.194;2022-07-22T09:23:09;4.61;;;1.8;;
68473;SDS011;55461;52.066;5.194;2022-07-22T09:24:57;2.1;;;1.9;;
68473;SDS011;55461;52.066;5.194;2022-07-22T09:26:44;4.2;;;2.0;;
68473;SDS011;55461;52.066;5.194;2022-07-22T09:30:17;3.7;;;2.1;;
68473;SDS011;55461;52.066;5.194;2022-07-22T09:32:06;4.91;;;2.31;;
68473;SDS011;55461;52.066;5.194;2022-07-22T09:33:54;4.41;;;2.21;;
68473;SDS011;55461;52.066;5.194;2022-07-22T09:35:41;4.91;;;2.31;;
68473;SDS011;55461;52.066;5.194;2022-07-22T09:37:28;3.7;;;2.4;;
68473;SDS011;55461;52.066;5.194;2022-07-22T09:39:23;4.5;;;2.31;;
68473;SDS011;55461;52.066;5.194;2022-07-22T09:41:14;4.61;;;2.6;;
68473;SDS011;55461;52.066;5.194;2022-07-22T09:44:50;2.8;;;2.1;;
68473;SDS011;55461;52.066;5.194;2022-07-22T09:46:37;4.0;;;2.6;;
68473;SDS011;55461;52.066;5.194;2022-07-22T09:48:24;3.4;;;2.4;;
68473;SDS011;55461;52.066;5.194;2022-07-22T09:50:15;4.3;;;2.8;;
68473;SDS011;55461;52.066;5.194;2022-07-22T09:52:06;5.4;;;2.6;;
68473;SDS011;55461;52.066;5.194;2022-07-22T09:53:52;5.7;;;3.1;;
68473;SDS011;55461;52.066;5.194;2022-07-22T09:57:27;5.9;;;3.0;;
68473;SDS011;55461;52.066;5.194;2022-07-22T09:59:14;6.1;;;3.1;;
68473;SDS011;55461;52.066;5.194;2022-07-22T10:01:03;4.61;;;3.2;;
68473;SDS011;55461;52.066;5.194;2022-07-22T10:02:53;4.0;;;3.2;;
68473;SDS011;55461;52.066;5.194;2022-07-22T10:04:42;5.2;;;3.3;;
68473;SDS011;55461;52.066;5.194;2022-07-22T10:06:33;5.0;;;3.9;;
68473;SDS011;55461;52.066;5.194;2022-07-22T10:10:12;4.8;;;3.7;;
68473;SDS011;55461;52.066;5.194;2022-07-22T10:12:01;5.11;;;3.5;;
68473;SDS011;55461;52.066;5.194;2022-07-22T10:13:48;4.91;;;3.6;;
68473;SDS011;55461;52.066;5.194;2022-07-22T10:15:36;4.91;;;3.7;;
68473;SDS011;55461;52.066;5.194;2022-07-22T10:17:24;4.8;;;3.9;;
68473;SDS011;55461;52.066;5.194;2022-07-22T10:19:11;4.41;;;3.6;;
68473;SDS011;55461;52.066;5.194;2022-07-22T10:21:02;4.1;;;3.6;;
68473;SDS011;55461;52.066;5.194;2022-07-22T10:24:55;6.3;;;3.5;;
68473;SDS011;55461;52.066;5.194;2022-07-22T10:26:46;4.7;;;3.3;;
68473;SDS011;55461;52.066;5.194;2022-07-22T10:28:36;3.8;;;3.2;;
68473;SDS011;55461;52.066;5.194;2022-07-22T10:30:25;5.0;;;3.4;;
68473;SDS011;55461;52.066;5.194;2022-07-22T10:32:22;5.3;;;3.2;;
68473;SDS011;55461;52.066;5.194;2022-07-22T10:34:09;5.4;;;3.7;;
68473;SDS011;55461;52.066;5.194;2022-07-22T10:35:56;5.4;;;4.2;;
68473;SDS011;55461;52.066;5.194;2022-07-22T10:37:47;5.2;;;4.1;;
68473;SDS011;55461;52.066;5.194;2022-07-22T10:41:56;7.0;;;4.1;;
68473;SDS011;55461;52.066;5.194;2022-07-22T10:45:33;5.3;;;4.5;;
68473;SDS011;55461;52.066;5.194;2022-07-22T10:47:43;5.4;;;4.41;;
68473;SDS011;55461;52.066;5.194;2022-07-22T10:49:38;6.1;;;4.41;;
68473;SDS011;55461;52.066;5.194;2022-07-22T10:51:26;4.2;;;3.8;;
68473;SDS011;55461;52.066;5.194;2022-07-22T10:53:13;5.6;;;3.9;;
68473;SDS011;55461;52.066;5.194;2022-07-22T10:55:17;5.0;;;3.9;;
68473;SDS011;55461;52.066;5.194;2022-07-22T10:57:05;5.7;;;3.8;;
68473;SDS011;55461;52.066;5.194;2022-07-22T10:58:53;5.4;;;4.2;;
68473;SDS011;55461;52.066;5.194;2022-07-22T11:00:43;5.8;;;3.9;;
68473;SDS011;55461;52.066;5.194;2022-07-22T11:04:17;4.5;;;4.0;;
68473;SDS011;55461;52.066;5.194;2022-07-22T11:06:16;4.41;;;4.0;;
68473;SDS011;55461;52.066;5.194;2022-07-22T11:08:08;7.0;;;3.8;;
68473;SDS011;55461;52.066;5.194;2022-07-22T11:10:07;6.1;;;4.0;;
68473;SDS011;55461;52.066;5.194;2022-07-22T11:11:56;4.5;;;3.8;;
68473;SDS011;55461;52.066;5.194;2022-07-22T11:13:44;4.5;;;3.9;;
68473;SDS011;55461;52.066;5.194;2022-07-22T11:15:31;4.2;;;3.8;;
68473;SDS011;55461;52.066;5.194;2022-07-22T11:19:03;5.3;;;3.8;;
68473;SDS011;55461;52.066;5.194;2022-07-22T11:20:50;4.2;;;3.8;;
68473;SDS011;55461;52.066;5.194;2022-07-22T11:22:37;5.6;;;3.9;;
68473;SDS011;55461;52.066;5.194;2022-07-22T11:24:25;5.2;;;4.0;;
68473;SDS011;55461;52.066;5.194;2022-07-22T11:26:13;6.4;;;3.8;;
68473;SDS011;55461;52.066;5.194;2022-07-22T11:28:02;4.5;;;3.8;;
68473;SDS011;55461;52.066;5.194;2022-07-22T11:31:37;6.1;;;4.1;;
68473;SDS011;55461;52.066;5.194;2022-07-22T11:33:25;4.61;;;3.8;;
68473;SDS011;55461;52.066;5.194;2022-07-22T11:35:11;3.9;;;3.5;;
68473;SDS011;55461;52.066;5.194;2022-07-22T11:36:58;5.0;;;4.0;;
68473;SDS011;55461;52.066;5.194;2022-07-22T11:38:45;5.3;;;3.5;;
68473;SDS011;55461;52.066;5.194;2022-07-22T11:40:33;5.6;;;4.2;;
68473;SDS011;55461;52.066;5.194;2022-07-22T11:44:06;5.0;;;3.6;;
68473;SDS011;55461;52.066;5.194;2022-07-22T11:45:56;4.61;;;4.1;;
68473;SDS011;55461;52.066;5.194;2022-07-22T11:47:48;5.0;;;3.9;;
68473;SDS011;55461;52.066;5.194;2022-07-22T11:49:36;5.7;;;4.0;;
68473;SDS011;55461;52.066;5.194;2022-07-22T11:51:27;5.8;;;3.9;;
68473;SDS011;55461;52.066;5.194;2022-07-22T11:53:15;6.0;;;3.9;;
68473;SDS011;55461;52.066;5.194;2022-07-22T11:57:01;5.2;;;3.7;;
68473;SDS011;55461;52.066;5.194;2022-07-22T11:58:49;4.61;;;3.9;;
68473;SDS011;55461;52.066;5.194;2022-07-22T12:00:38;5.8;;;4.2;;
68473;SDS011;55461;52.066;5.194;2022-07-22T12:02:24;6.0;;;4.0;;
68473;SDS011;55461;52.066;5.194;2022-07-22T12:04:12;4.7;;;4.1;;
68473;SDS011;55461;52.066;5.194;2022-07-22T12:06:02;5.0;;;3.9;;
68473;SDS011;55461;52.066;5.194;2022-07-22T12:07:52;4.61;;;3.8;;
68473;SDS011;55461;52.066;5.194;2022-07-22T12:11:27;5.4;;;4.3;;
68473;SDS011;55461;52.066;5.194;2022-07-22T12:13:14;6.3;;;4.0;;
68473;SDS011;55461;52.066;5.194;2022-07-22T12:15:00;5.4;;;3.8;;
68473;SDS011;55461;52.066;5.194;2022-07-22T12:16:54;4.7;;;3.7;;
68473;SDS011;55461;52.066;5.194;2022-07-22T12:18:43;6.9;;;4.1;;
68473;SDS011;55461;52.066;5.194;2022-07-22T12:20:29;6.7;;;4.7;;
68473;SDS011;55461;52.066;5.194;2022-07-22T12:24:07;7.2;;;4.91;;
68473;SDS011;55461;52.066;5.194;2022-07-22T12:25:55;5.5;;;4.2;;
68473;SDS011;55461;52.066;5.194;2022-07-22T12:27:58;6.5;;;4.5;;
68473;SDS011;55461;52.066;5.194;2022-07-22T12:29:46;5.5;;;3.9;;
68473;SDS011;55461;52.066;5.194;2022-07-22T12:31:40;5.9;;;4.41;;
68473;SDS011;55461;52.066;5.194;2022-07-22T12:33:28;4.8;;;4.3;;
68473;SDS011;55461;52.066;5.194;2022-07-22T12:35:14;6.7;;;4.2;;
68473;SDS011;55461;52.066;5.194;2022-07-22T12:37:18;6.7;;;4.41;;
68473;SDS011;55461;52.066;5.194;2022-07-22T12:39:12;4.7;;;4.2;;
68473;SDS011;55461;52.066;5.194;2022-07-22T12:43:32;5.7;;;3.7;;
68473;SDS011;55461;52.066;5.194;2022-07-22T12:45:25;6.2;;;3.7;;
68473;SDS011;55461;52.066;5.194;2022-07-22T12:49:00;4.91;;;4.1;;
68473;SDS011;55461;52.066;5.194;2022-07-22T12:50:54;4.8;;;4.0;;
68473;SDS011;55461;52.066;5.194;2022-07-22T12:52:42;5.0;;;4.1;;
68473;SDS011;55461;52.066;5.194;2022-07-22T12:54:28;5.4;;;4.3;;
68473;SDS011;55461;52.066;5.194;2022-07-22T12:56:14;5.5;;;4.2;;
68473;SDS011;55461;52.066;5.194;2022-07-22T12:58:00;5.6;;;4.3;;
68473;SDS011;55461;52.066;5.194;2022-07-22T13:01:38;5.11;;;4.3;;
68473;SDS011;55461;52.066;5.194;2022-07-22T13:03:26;5.8;;;4.2;;